createdAt,value
2022-11-03T00:09:46.005Z,10.27
2022-11-03T00:38:44.444Z,10.1
2022-11-03T01:07:36.795Z,9.78
2022-11-03T01:36:34.029Z,9.79
2022-11-03T02:05:32.151Z,9.7
2022-11-03T02:34:20.302Z,9.48
2022-11-03T03:03:19.225Z,9.29
2022-11-03T03:32:17.954Z,9.04
2022-11-03T04:01:19.313Z,9.02
2022-11-03T04:30:08.217Z,9.02
2022-11-03T04:59:04.168Z,8.93
2022-11-03T05:28:06.031Z,8.66
2022-11-03T05:56:42.119Z,8.53
2022-11-03T06:25:39.735Z,8.66
2022-11-03T06:54:42.699Z,8.8
2022-11-03T07:23:47.635Z,9.22
2022-11-03T07:52:44.723Z,10.33
2022-11-03T08:21:55.589Z,11.33
2022-11-03T08:50:56.981Z,11.02
2022-11-03T09:20:00.133Z,11.49
2022-11-03T09:48:42.142Z,11.88
2022-11-03T10:17:46.985Z,11.88
2022-11-03T10:46:51.978Z,12.2
2022-11-03T11:15:22.578Z,12.6
2022-11-03T11:44:14.618Z,12.41
2022-11-03T12:13:07.939Z,12.51
2022-11-03T12:41:59.983Z,12.57
2022-11-03T13:11:03.549Z,12.69
2022-11-03T13:40:06.812Z,12.5
2022-11-03T14:09:03.037Z,12.37
2022-11-03T14:38:02.792Z,12.58
2022-11-03T15:06:47.799Z,12.45
2022-11-03T15:35:31.892Z,12.28
2022-11-03T16:04:23.071Z,12.01
2022-11-03T16:33:22.162Z,11.86
2022-11-03T17:02:21.881Z,11.73
2022-11-03T17:31:16.392Z,11.85
2022-11-03T18:00:23.394Z,12.2
2022-11-03T18:29:22.614Z,12.35
2022-11-03T18:58:06.429Z,12.36
2022-11-03T19:26:41.541Z,12.37
2022-11-03T19:55:34.573Z,12.21
2022-11-03T20:24:23.687Z,12.19
2022-11-03T20:53:19.820Z,11.89
2022-11-03T21:22:51.747Z,11.83
2022-11-03T21:50:38.679Z,11.86
2022-11-03T22:19:31.368Z,11.83
2022-11-03T22:48:28.748Z,11.78
2022-11-03T23:17:29.768Z,11.74
2022-11-03T23:46:23.993Z,11.64
